sensor_id;sensor_type;location;lat;lon;timestamp;temperature;humidity
2030;DHT22;1020;48.854;8.830;2023-09-08T00:00:55;16.90;1.00
2030;DHT22;1020;48.854;8.830;2023-09-08T00:03:22;16.90;1.00
2030;DHT22;1020;48.854;8.830;2023-09-08T00:05:49;16.90;1.00
2030;DHT22;1020;48.854;8.830;2023-09-08T00:08:16;16.80;1.00
2030;DHT22;1020;48.854;8.830;2023-09-08T00:10:43;16.80;1.00
2030;DHT22;1020;48.854;8.830;2023-09-08T00:13:11;16.70;1.00
2030;DHT22;1020;48.854;8.830;2023-09-08T00:15:38;16.70;1.00
2030;DHT22;1020;48.854;8.830;2023-09-08T00:18:05;16.60;11.10
2030;DHT22;1020;48.854;8.830;2023-09-08T00:20:32;16.60;19.00
2030;DHT22;1020;48.854;8.830;2023-09-08T00:22:58;16.60;20.10
2030;DHT22;1020;48.854;8.830;2023-09-08T00:25:25;16.60;8.50
2030;DHT22;1020;48.854;8.830;2023-09-08T00:27:52;16.50;7.30
2030;DHT22;1020;48.854;8.830;2023-09-08T00:30:20;16.40;1.30
2030;DHT22;1020;48.854;8.830;2023-09-08T00:32:47;16.40;1.90
2030;DHT22;1020;48.854;8.830;2023-09-08T00:35:13;16.40;1.00
2030;DHT22;1020;48.854;8.830;2023-09-08T00:37:40;16.40;7.90
2030;DHT22;1020;48.854;8.830;2023-09-08T00:40:08;16.40;13.10
2030;DHT22;1020;48.854;8.830;2023-09-08T00:42:35;16.40;18.30
2030;DHT22;1020;48.854;8.830;2023-09-08T00:45:01;16.50;5.30
2030;DHT22;1020;48.854;8.830;2023-09-08T00:47:30;16.50;1.00
2030;DHT22;1020;48.854;8.830;2023-09-08T00:49:56;16.50;1.00
2030;DHT22;1020;48.854;8.830;2023-09-08T00:52:23;16.50;1.00
2030;DHT22;1020;48.854;8.830;2023-09-08T00:54:56;16.50;1.00
2030;DHT22;1020;48.854;8.830;2023-09-08T00:57:23;16.30;4.90
2030;DHT22;1020;48.854;8.830;2023-09-08T00:59:50;16.30;1.00
2030;DHT22;1020;48.854;8.830;2023-09-08T01:02:17;16.30;1.00
2030;DHT22;1020;48.854;8.830;2023-09-08T01:04:45;16.30;1.00
2030;DHT22;1020;48.854;8.830;2023-09-08T01:07:14;16.30;1.00
2030;DHT22;1020;48.854;8.830;2023-09-08T01:09:41;16.30;1.00
2030;DHT22;1020;48.854;8.830;2023-09-08T01:12:08;16.30;1.00
2030;DHT22;1020;48.854;8.830;2023-09-08T01:14:35;16.30;1.00
2030;DHT22;1020;48.854;8.830;2023-09-08T01:17:02;16.30;1.00
2030;DHT22;1020;48.854;8.830;2023-09-08T01:19:29;16.30;1.00
2030;DHT22;1020;48.854;8.830;2023-09-08T01:22:30;16.30;1.00
2030;DHT22;1020;48.854;8.830;2023-09-08T01:25:14;16.30;1.00
2030;DHT22;1020;48.854;8.830;2023-09-08T01:27:46;16.40;1.00
2030;DHT22;1020;48.854;8.830;2023-09-08T01:30:14;16.40;1.00
2030;DHT22;1020;48.854;8.830;2023-09-08T01:32:42;16.40;1.00
2030;DHT22;1020;48.854;8.830;2023-09-08T01:35:09;16.40;1.00
2030;DHT22;1020;48.854;8.830;2023-09-08T01:37:39;16.40;1.00
2030;DHT22;1020;48.854;8.830;2023-09-08T01:40:07;16.40;1.00
2030;DHT22;1020;48.854;8.830;2023-09-08T01:42:36;16.30;1.00
2030;DHT22;1020;48.854;8.830;2023-09-08T01:45:03;16.20;1.00
2030;DHT22;1020;48.854;8.830;2023-09-08T01:47:30;16.20;1.00
2030;DHT22;1020;48.854;8.830;2023-09-08T01:49:57;16.10;1.00
2030;DHT22;1020;48.854;8.830;2023-09-08T01:52:24;16.10;1.00
2030;DHT22;1020;48.854;8.830;2023-09-08T01:54:51;16.10;1.00
2030;DHT22;1020;48.854;8.830;2023-09-08T01:57:18;16.10;1.00
2030;DHT22;1020;48.854;8.830;2023-09-08T01:59:46;16.10;1.00
2030;DHT22;1020;48.854;8.830;2023-09-08T02:02:13;16.10;1.00
2030;DHT22;1020;48.854;8.830;2023-09-08T02:04:40;16.10;1.00
2030;DHT22;1020;48.854;8.830;2023-09-08T02:07:07;16.10;1.00
2030;DHT22;1020;48.854;8.830;2023-09-08T02:09:35;16.10;1.00
2030;DHT22;1020;48.854;8.830;2023-09-08T02:12:03;16.10;1.00
2030;DHT22;1020;48.854;8.830;2023-09-08T02:14:30;16.20;1.00
2030;DHT22;1020;48.854;8.830;2023-09-08T02:16:58;16.20;1.00
2030;DHT22;1020;48.854;8.830;2023-09-08T02:19:25;16.20;1.00
2030;DHT22;1020;48.854;8.830;2023-09-08T02:21:51;16.20;1.00
2030;DHT22;1020;48.854;8.830;2023-09-08T02:24:18;16.20;1.00
2030;DHT22;1020;48.854;8.830;2023-09-08T02:26:45;16.20;1.00
2030;DHT22;1020;48.854;8.830;2023-09-08T02:29:12;16.20;1.00
2030;DHT22;1020;48.854;8.830;2023-09-08T02:31:39;16.20;1.00
2030;DHT22;1020;48.854;8.830;2023-09-08T02:34:07;16.20;1.00
2030;DHT22;1020;48.854;8.830;2023-09-08T02:36:33;16.10;1.00
2030;DHT22;1020;48.854;8.830;2023-09-08T02:39:00;16.10;1.00
2030;DHT22;1020;48.854;8.830;2023-09-08T02:41:27;16.10;1.00
2030;DHT22;1020;48.854;8.830;2023-09-08T02:43:54;16.00;1.00
2030;DHT22;1020;48.854;8.830;2023-09-08T02:46:20;16.00;4.90
2030;DHT22;1020;48.854;8.830;2023-09-08T02:48:47;15.90;10.80
2030;DHT22;1020;48.854;8.830;2023-09-08T02:51:15;15.80;22.20
2030;DHT22;1020;48.854;8.830;2023-09-08T02:53:42;15.70;30.00
2030;DHT22;1020;48.854;8.830;2023-09-08T02:56:09;15.70;43.20
2030;DHT22;1020;48.854;8.830;2023-09-08T02:58:36;15.60;52.90
2030;DHT22;1020;48.854;8.830;2023-09-08T03:01:13;15.60;60.70
2030;DHT22;1020;48.854;8.830;2023-09-08T03:03:40;15.60;54.20
2030;DHT22;1020;48.854;8.830;2023-09-08T03:06:08;15.70;49.90
2030;DHT22;1020;48.854;8.830;2023-09-08T03:08:36;15.70;49.30
2030;DHT22;1020;48.854;8.830;2023-09-08T03:11:03;15.60;45.80
2030;DHT22;1020;48.854;8.830;2023-09-08T03:13:30;15.60;43.80
2030;DHT22;1020;48.854;8.830;2023-09-08T03:16:02;15.50;44.10
2030;DHT22;1020;48.854;8.830;2023-09-08T03:18:29;15.50;49.80
2030;DHT22;1020;48.854;8.830;2023-09-08T03:20:56;15.40;49.10
2030;DHT22;1020;48.854;8.830;2023-09-08T03:23:22;15.30;84.40
2030;DHT22;1020;48.854;8.830;2023-09-08T03:25:51;15.20;95.00
2030;DHT22;1020;48.854;8.830;2023-09-08T03:28:17;15.20;99.90
2030;DHT22;1020;48.854;8.830;2023-09-08T03:30:44;15.20;99.90
2030;DHT22;1020;48.854;8.830;2023-09-08T03:33:11;15.20;99.90
2030;DHT22;1020;48.854;8.830;2023-09-08T03:35:38;15.10;99.90
2030;DHT22;1020;48.854;8.830;2023-09-08T03:38:04;15.10;99.90
2030;DHT22;1020;48.854;8.830;2023-09-08T03:40:31;15.10;99.90
2030;DHT22;1020;48.854;8.830;2023-09-08T03:42:59;15.10;99.90
2030;DHT22;1020;48.854;8.830;2023-09-08T03:45:26;15.10;99.90
2030;DHT22;1020;48.854;8.830;2023-09-08T03:47:52;15.00;99.90
2030;DHT22;1020;48.854;8.830;2023-09-08T03:50:19;14.90;99.90
2030;DHT22;1020;48.854;8.830;2023-09-08T03:52:46;14.90;99.90
2030;DHT22;1020;48.854;8.830;2023-09-08T03:55:13;14.80;99.90
2030;DHT22;1020;48.854;8.830;2023-09-08T03:57:40;14.80;99.90
2030;DHT22;1020;48.854;8.830;2023-09-08T04:00:09;14.70;99.90
2030;DHT22;1020;48.854;8.830;2023-09-08T04:02:37;14.70;99.90
2030;DHT22;1020;48.854;8.830;2023-09-08T04:05:04;14.80;99.90
2030;DHT22;1020;48.854;8.830;2023-09-08T04:07:31;14.80;99.90
2030;DHT22;1020;48.854;8.830;2023-09-08T04:09:58;14.80;99.90
2030;DHT22;1020;48.854;8.830;2023-09-08T04:12:25;14.90;99.90
2030;DHT22;1020;48.854;8.830;2023-09-08T04:14:51;14.90;99.90
2030;DHT22;1020;48.854;8.830;2023-09-08T04:17:19;14.90;99.90
2030;DHT22;1020;48.854;8.830;2023-09-08T04:19:46;14.90;99.90
2030;DHT22;1020;48.854;8.830;2023-09-08T04:22:13;15.00;99.90
2030;DHT22;1020;48.854;8.830;2023-09-08T04:24:39;15.10;99.90
2030;DHT22;1020;48.854;8.830;2023-09-08T04:27:06;15.00;99.90
2030;DHT22;1020;48.854;8.830;2023-09-08T04:29:34;14.90;99.90
2030;DHT22;1020;48.854;8.830;2023-09-08T04:32:01;14.90;99.90
2030;DHT22;1020;48.854;8.830;2023-09-08T04:34:36;15.00;99.90
2030;DHT22;1020;48.854;8.830;2023-09-08T04:37:03;14.90;99.90
2030;DHT22;1020;48.854;8.830;2023-09-08T04:39:30;14.80;99.90
2030;DHT22;1020;48.854;8.830;2023-09-08T04:41:56;14.80;99.90
2030;DHT22;1020;48.854;8.830;2023-09-08T04:44:23;14.80;99.90
2030;DHT22;1020;48.854;8.830;2023-09-08T04:46:51;14.80;99.90
2030;DHT22;1020;48.854;8.830;2023-09-08T04:49:19;14.80;99.90
2030;DHT22;1020;48.854;8.830;2023-09-08T04:51:47;14.80;99.90
2030;DHT22;1020;48.854;8.830;2023-09-08T04:54:14;14.90;99.90
2030;DHT22;1020;48.854;8.830;2023-09-08T04:56:41;14.90;99.90
2030;DHT22;1020;48.854;8.830;2023-09-08T04:59:08;14.90;99.90
2030;DHT22;1020;48.854;8.830;2023-09-08T05:01:34;14.80;99.90
2030;DHT22;1020;48.854;8.830;2023-09-08T05:04:03;14.80;99.90
2030;DHT22;1020;48.854;8.830;2023-09-08T05:06:30;14.80;99.90
2030;DHT22;1020;48.854;8.830;2023-09-08T05:08:58;14.70;99.90
2030;DHT22;1020;48.854;8.830;2023-09-08T05:11:25;14.70;99.90
2030;DHT22;1020;48.854;8.830;2023-09-08T05:13:51;14.60;99.90
2030;DHT22;1020;48.854;8.830;2023-09-08T05:16:18;14.60;99.90
2030;DHT22;1020;48.854;8.830;2023-09-08T05:18:51;14.50;99.90
2030;DHT22;1020;48.854;8.830;2023-09-08T05:21:18;14.50;99.90
2030;DHT22;1020;48.854;8.830;2023-09-08T05:23:45;14.40;99.90
2030;DHT22;1020;48.854;8.830;2023-09-08T05:26:13;14.40;99.90
2030;DHT22;1020;48.854;8.830;2023-09-08T05:28:39;14.40;99.90
2030;DHT22;1020;48.854;8.830;2023-09-08T05:31:06;14.50;99.90
2030;DHT22;1020;48.854;8.830;2023-09-08T05:33:33;14.50;99.90
2030;DHT22;1020;48.854;8.830;2023-09-08T05:36:00;14.50;99.90
2030;DHT22;1020;48.854;8.830;2023-09-08T05:38:27;14.60;99.90
2030;DHT22;1020;48.854;8.830;2023-09-08T05:40:54;14.60;99.90
2030;DHT22;1020;48.854;8.830;2023-09-08T05:43:25;14.60;99.90
2030;DHT22;1020;48.854;8.830;2023-09-08T05:45:52;14.70;99.90
2030;DHT22;1020;48.854;8.830;2023-09-08T05:48:19;14.80;99.90
2030;DHT22;1020;48.854;8.830;2023-09-08T05:50:45;14.90;99.90
2030;DHT22;1020;48.854;8.830;2023-09-08T05:53:12;14.90;99.90
2030;DHT22;1020;48.854;8.830;2023-09-08T05:55:39;15.00;99.90
2030;DHT22;1020;48.854;8.830;2023-09-08T05:58:06;15.00;99.90
2030;DHT22;1020;48.854;8.830;2023-09-08T06:00:35;15.10;99.90
2030;DHT22;1020;48.854;8.830;2023-09-08T06:03:01;15.20;99.90
2030;DHT22;1020;48.854;8.830;2023-09-08T06:05:29;15.40;99.90
2030;DHT22;1020;48.854;8.830;2023-09-08T06:07:55;15.40;99.90
2030;DHT22;1020;48.854;8.830;2023-09-08T06:10:22;15.50;99.90
2030;DHT22;1020;48.854;8.830;2023-09-08T06:12:49;15.60;99.90
2030;DHT22;1020;48.854;8.830;2023-09-08T06:15:16;15.80;99.90
2030;DHT22;1020;48.854;8.830;2023-09-08T06:17:44;16.00;99.90
2030;DHT22;1020;48.854;8.830;2023-09-08T06:20:12;16.10;99.90
2030;DHT22;1020;48.854;8.830;2023-09-08T06:22:39;16.30;99.90
2030;DHT22;1020;48.854;8.830;2023-09-08T06:25:06;16.50;97.50
2030;DHT22;1020;48.854;8.830;2023-09-08T06:27:33;16.60;78.70
2030;DHT22;1020;48.854;8.830;2023-09-08T06:29:59;16.70;49.00
2030;DHT22;1020;48.854;8.830;2023-09-08T06:32:26;16.80;41.40
2030;DHT22;1020;48.854;8.830;2023-09-08T06:34:54;17.00;27.00
2030;DHT22;1020;48.854;8.830;2023-09-08T06:37:21;17.10;17.30
2030;DHT22;1020;48.854;8.830;2023-09-08T06:39:48;17.20;2.50
2030;DHT22;1020;48.854;8.830;2023-09-08T06:42:14;17.40;4.40
2030;DHT22;1020;48.854;8.830;2023-09-08T06:44:41;17.50;1.00
2030;DHT22;1020;48.854;8.830;2023-09-08T06:47:08;17.70;1.00
2030;DHT22;1020;48.854;8.830;2023-09-08T06:49:35;17.80;1.00
2030;DHT22;1020;48.854;8.830;2023-09-08T06:52:04;18.00;1.00
2030;DHT22;1020;48.854;8.830;2023-09-08T06:54:31;18.30;1.00
2030;DHT22;1020;48.854;8.830;2023-09-08T06:56:58;18.60;1.00
2030;DHT22;1020;48.854;8.830;2023-09-08T06:59:25;19.20;1.00
2030;DHT22;1020;48.854;8.830;2023-09-08T07:01:51;20.00;99.90
2030;DHT22;1020;48.854;8.830;2023-09-08T07:04:18;21.00;99.90
2030;DHT22;1020;48.854;8.830;2023-09-08T07:06:45;21.90;99.90
2030;DHT22;1020;48.854;8.830;2023-09-08T07:09:13;22.80;99.90
2030;DHT22;1020;48.854;8.830;2023-09-08T07:11:40;23.60;99.90
2030;DHT22;1020;48.854;8.830;2023-09-08T07:14:06;24.00;99.90
2030;DHT22;1020;48.854;8.830;2023-09-08T07:16:33;24.20;99.90
2030;DHT22;1020;48.854;8.830;2023-09-08T07:19:01;24.70;99.90
2030;DHT22;1020;48.854;8.830;2023-09-08T07:21:28;25.50;99.90
2030;DHT22;1020;48.854;8.830;2023-09-08T07:23:55;25.90;99.90
2030;DHT22;1020;48.854;8.830;2023-09-08T07:26:23;25.80;99.90
2030;DHT22;1020;48.854;8.830;2023-09-08T07:28:50;26.20;99.90
2030;DHT22;1020;48.854;8.830;2023-09-08T07:31:16;26.80;99.90
2030;DHT22;1020;48.854;8.830;2023-09-08T07:33:43;27.10;99.90
2030;DHT22;1020;48.854;8.830;2023-09-08T07:36:10;27.30;99.90
2030;DHT22;1020;48.854;8.830;2023-09-08T07:38:37;28.30;99.90
2030;DHT22;1020;48.854;8.830;2023-09-08T07:41:04;28.80;99.90
2030;DHT22;1020;48.854;8.830;2023-09-08T07:43:32;28.90;99.90
2030;DHT22;1020;48.854;8.830;2023-09-08T07:45:58;30.50;98.80
2030;DHT22;1020;48.854;8.830;2023-09-08T07:48:25;32.20;94.10
2030;DHT22;1020;48.854;8.830;2023-09-08T07:50:52;32.10;90.20
2030;DHT22;1020;48.854;8.830;2023-09-08T07:53:19;32.90;87.70
2030;DHT22;1020;48.854;8.830;2023-09-08T07:55:45;33.20;82.50
2030;DHT22;1020;48.854;8.830;2023-09-08T07:58:12;34.30;74.70
2030;DHT22;1020;48.854;8.830;2023-09-08T08:00:40;34.60;73.00
2030;DHT22;1020;48.854;8.830;2023-09-08T08:03:07;34.40;68.60
2030;DHT22;1020;48.854;8.830;2023-09-08T08:05:34;34.60;66.30
2030;DHT22;1020;48.854;8.830;2023-09-08T08:08:01;34.60;66.80
2030;DHT22;1020;48.854;8.830;2023-09-08T08:10:28;35.60;62.70
2030;DHT22;1020;48.854;8.830;2023-09-08T08:12:55;35.10;62.30
2030;DHT22;1020;48.854;8.830;2023-09-08T08:15:23;34.90;61.60
2030;DHT22;1020;48.854;8.830;2023-09-08T08:18:02;35.10;62.00
2030;DHT22;1020;48.854;8.830;2023-09-08T08:20:29;34.90;59.70
2030;DHT22;1020;48.854;8.830;2023-09-08T08:23:00;35.30;60.60
2030;DHT22;1020;48.854;8.830;2023-09-08T08:25:26;35.70;60.10
2030;DHT22;1020;48.854;8.830;2023-09-08T08:27:53;36.40;57.90
2030;DHT22;1020;48.854;8.830;2023-09-08T08:30:20;35.80;56.80
2030;DHT22;1020;48.854;8.830;2023-09-08T08:32:47;35.00;58.00
2030;DHT22;1020;48.854;8.830;2023-09-08T08:35:15;35.80;57.60
2030;DHT22;1020;48.854;8.830;2023-09-08T08:37:41;36.60;57.30
2030;DHT22;1020;48.854;8.830;2023-09-08T08:40:10;36.60;55.80
2030;DHT22;1020;48.854;8.830;2023-09-08T08:42:38;37.00;54.60
2030;DHT22;1020;48.854;8.830;2023-09-08T08:45:06;37.10;54.20
2030;DHT22;1020;48.854;8.830;2023-09-08T08:47:33;37.20;54.20
2030;DHT22;1020;48.854;8.830;2023-09-08T08:50:01;35.50;55.80
2030;DHT22;1020;48.854;8.830;2023-09-08T08:52:31;35.70;56.50
2030;DHT22;1020;48.854;8.830;2023-09-08T08:54:59;36.10;55.50
2030;DHT22;1020;48.854;8.830;2023-09-08T08:57:27;35.50;55.60
2030;DHT22;1020;48.854;8.830;2023-09-08T08:59:54;36.30;56.00
2030;DHT22;1020;48.854;8.830;2023-09-08T09:02:21;36.50;53.40
2030;DHT22;1020;48.854;8.830;2023-09-08T09:04:49;35.10;55.80
2030;DHT22;1020;48.854;8.830;2023-09-08T09:07:18;35.50;55.20
2030;DHT22;1020;48.854;8.830;2023-09-08T09:09:46;35.20;56.20
2030;DHT22;1020;48.854;8.830;2023-09-08T09:12:13;34.90;56.70
2030;DHT22;1020;48.854;8.830;2023-09-08T09:14:45;34.90;56.90
2030;DHT22;1020;48.854;8.830;2023-09-08T09:17:13;35.10;56.70
2030;DHT22;1020;48.854;8.830;2023-09-08T09:19:40;34.80;57.60
2030;DHT22;1020;48.854;8.830;2023-09-08T09:22:07;35.00;57.50
2030;DHT22;1020;48.854;8.830;2023-09-08T09:24:35;35.30;56.50
2030;DHT22;1020;48.854;8.830;2023-09-08T09:27:08;34.50;57.70
2030;DHT22;1020;48.854;8.830;2023-09-08T09:29:44;33.90;59.50
2030;DHT22;1020;48.854;8.830;2023-09-08T09:32:11;35.40;58.10
2030;DHT22;1020;48.854;8.830;2023-09-08T09:34:47;36.70;55.70
2030;DHT22;1020;48.854;8.830;2023-09-08T09:37:15;38.00;53.00
2030;DHT22;1020;48.854;8.830;2023-09-08T09:39:41;38.10;51.90
2030;DHT22;1020;48.854;8.830;2023-09-08T09:42:09;38.10;52.00
2030;DHT22;1020;48.854;8.830;2023-09-08T09:44:36;37.90;51.00
2030;DHT22;1020;48.854;8.830;2023-09-08T09:47:04;37.30;52.00
2030;DHT22;1020;48.854;8.830;2023-09-08T09:49:32;38.10;50.70
2030;DHT22;1020;48.854;8.830;2023-09-08T09:52:07;38.10;50.40
2030;DHT22;1020;48.854;8.830;2023-09-08T09:54:34;37.80;50.70
2030;DHT22;1020;48.854;8.830;2023-09-08T09:57:01;37.40;50.80
2030;DHT22;1020;48.854;8.830;2023-09-08T09:59:31;38.20;51.30
2030;DHT22;1020;48.854;8.830;2023-09-08T10:01:58;39.00;49.40
2030;DHT22;1020;48.854;8.830;2023-09-08T10:04:26;39.30;48.30
2030;DHT22;1020;48.854;8.830;2023-09-08T10:06:54;39.00;47.00
2030;DHT22;1020;48.854;8.830;2023-09-08T10:09:24;39.50;47.40
2030;DHT22;1020;48.854;8.830;2023-09-08T10:11:53;39.90;45.70
2030;DHT22;1020;48.854;8.830;2023-09-08T10:14:22;40.10;47.10
2030;DHT22;1020;48.854;8.830;2023-09-08T10:16:52;40.70;45.50
2030;DHT22;1020;48.854;8.830;2023-09-08T10:19:22;40.60;45.90
2030;DHT22;1020;48.854;8.830;2023-09-08T10:21:50;41.20;44.60
2030;DHT22;1020;48.854;8.830;2023-09-08T10:24:22;41.30;44.10
2030;DHT22;1020;48.854;8.830;2023-09-08T10:26:54;42.20;42.50
2030;DHT22;1020;48.854;8.830;2023-09-08T10:29:23;42.70;41.40
2030;DHT22;1020;48.854;8.830;2023-09-08T10:31:52;42.40;40.80
2030;DHT22;1020;48.854;8.830;2023-09-08T10:34:20;42.50;40.90
2030;DHT22;1020;48.854;8.830;2023-09-08T10:36:48;42.70;40.60
2030;DHT22;1020;48.854;8.830;2023-09-08T10:39:31;42.70;39.80
2030;DHT22;1020;48.854;8.830;2023-09-08T10:42:20;43.00;39.70
2030;DHT22;1020;48.854;8.830;2023-09-08T10:44:56;42.90;38.60
2030;DHT22;1020;48.854;8.830;2023-09-08T10:47:25;42.40;38.60
2030;DHT22;1020;48.854;8.830;2023-09-08T10:49:53;41.50;39.70
2030;DHT22;1020;48.854;8.830;2023-09-08T10:52:23;42.00;39.90
2030;DHT22;1020;48.854;8.830;2023-09-08T10:54:51;42.50;38.80
2030;DHT22;1020;48.854;8.830;2023-09-08T10:57:20;43.20;37.80
2030;DHT22;1020;48.854;8.830;2023-09-08T10:59:51;43.50;36.40
2030;DHT22;1020;48.854;8.830;2023-09-08T11:02:34;43.00;37.20
2030;DHT22;1020;48.854;8.830;2023-09-08T11:05:02;43.30;37.60
2030;DHT22;1020;48.854;8.830;2023-09-08T11:07:30;42.40;36.90
2030;DHT22;1020;48.854;8.830;2023-09-08T11:09:57;42.20;37.30
2030;DHT22;1020;48.854;8.830;2023-09-08T11:12:26;41.20;38.60
2030;DHT22;1020;48.854;8.830;2023-09-08T11:14:53;41.40;39.20
2030;DHT22;1020;48.854;8.830;2023-09-08T11:17:20;41.80;39.10
2030;DHT22;1020;48.854;8.830;2023-09-08T11:19:49;41.20;38.90
2030;DHT22;1020;48.854;8.830;2023-09-08T11:22:16;41.70;38.70
2030;DHT22;1020;48.854;8.830;2023-09-08T11:24:44;42.00;39.20
2030;DHT22;1020;48.854;8.830;2023-09-08T11:27:11;42.00;38.90
2030;DHT22;1020;48.854;8.830;2023-09-08T11:29:38;42.10;38.00
2030;DHT22;1020;48.854;8.830;2023-09-08T11:32:06;41.40;37.20
2030;DHT22;1020;48.854;8.830;2023-09-08T11:34:34;41.10;38.40
2030;DHT22;1020;48.854;8.830;2023-09-08T11:37:05;41.10;38.30
2030;DHT22;1020;48.854;8.830;2023-09-08T11:39:37;40.90;38.00
2030;DHT22;1020;48.854;8.830;2023-09-08T11:42:04;41.40;38.20
2030;DHT22;1020;48.854;8.830;2023-09-08T11:44:31;42.00;38.00
2030;DHT22;1020;48.854;8.830;2023-09-08T11:46:58;42.00;37.00
2030;DHT22;1020;48.854;8.830;2023-09-08T11:49:25;42.10;36.90
2030;DHT22;1020;48.854;8.830;2023-09-08T11:51:51;42.60;36.00
2030;DHT22;1020;48.854;8.830;2023-09-08T11:54:20;42.60;35.30
2030;DHT22;1020;48.854;8.830;2023-09-08T11:56:46;42.00;36.30
2030;DHT22;1020;48.854;8.830;2023-09-08T11:59:13;40.20;36.40
2030;DHT22;1020;48.854;8.830;2023-09-08T12:01:40;40.00;38.80
2030;DHT22;1020;48.854;8.830;2023-09-08T12:04:17;40.90;38.00
2030;DHT22;1020;48.854;8.830;2023-09-08T12:06:45;41.00;37.60
2030;DHT22;1020;48.854;8.830;2023-09-08T12:09:12;41.40;37.30
2030;DHT22;1020;48.854;8.830;2023-09-08T12:11:40;42.10;37.00
2030;DHT22;1020;48.854;8.830;2023-09-08T12:14:10;42.70;36.00
2030;DHT22;1020;48.854;8.830;2023-09-08T12:16:38;41.60;35.40
2030;DHT22;1020;48.854;8.830;2023-09-08T12:19:05;41.80;36.70
2030;DHT22;1020;48.854;8.830;2023-09-08T12:21:35;42.00;36.20
2030;DHT22;1020;48.854;8.830;2023-09-08T12:24:01;42.10;36.20
2030;DHT22;1020;48.854;8.830;2023-09-08T12:26:28;42.20;35.60
2030;DHT22;1020;48.854;8.830;2023-09-08T12:28:57;42.30;35.80
2030;DHT22;1020;48.854;8.830;2023-09-08T12:31:23;41.90;36.40
2030;DHT22;1020;48.854;8.830;2023-09-08T12:33:50;41.60;36.10
2030;DHT22;1020;48.854;8.830;2023-09-08T12:36:19;41.40;36.40
2030;DHT22;1020;48.854;8.830;2023-09-08T12:38:50;40.40;37.50
2030;DHT22;1020;48.854;8.830;2023-09-08T12:41:17;41.20;36.30
2030;DHT22;1020;48.854;8.830;2023-09-08T12:43:44;41.60;35.10
2030;DHT22;1020;48.854;8.830;2023-09-08T12:46:12;41.70;35.20
2030;DHT22;1020;48.854;8.830;2023-09-08T12:48:39;41.70;36.00
2030;DHT22;1020;48.854;8.830;2023-09-08T12:51:06;42.10;35.10
2030;DHT22;1020;48.854;8.830;2023-09-08T12:53:34;42.10;34.20
2030;DHT22;1020;48.854;8.830;2023-09-08T12:56:01;42.20;34.70
2030;DHT22;1020;48.854;8.830;2023-09-08T12:58:28;42.10;35.50
2030;DHT22;1020;48.854;8.830;2023-09-08T13:00:55;42.10;34.80
2030;DHT22;1020;48.854;8.830;2023-09-08T13:03:23;42.30;34.50
2030;DHT22;1020;48.854;8.830;2023-09-08T13:05:50;42.20;34.50
2030;DHT22;1020;48.854;8.830;2023-09-08T13:08:17;41.80;34.20
2030;DHT22;1020;48.854;8.830;2023-09-08T13:10:43;41.80;35.20
2030;DHT22;1020;48.854;8.830;2023-09-08T13:13:10;41.80;35.40
2030;DHT22;1020;48.854;8.830;2023-09-08T13:15:37;41.60;34.80
2030;DHT22;1020;48.854;8.830;2023-09-08T13:18:04;42.20;34.50
2030;DHT22;1020;48.854;8.830;2023-09-08T13:20:32;42.60;33.60
2030;DHT22;1020;48.854;8.830;2023-09-08T13:22:59;41.70;34.20
2030;DHT22;1020;48.854;8.830;2023-09-08T13:25:26;41.30;34.00
2030;DHT22;1020;48.854;8.830;2023-09-08T13:27:52;41.60;34.80
2030;DHT22;1020;48.854;8.830;2023-09-08T13:30:20;40.60;35.00
2030;DHT22;1020;48.854;8.830;2023-09-08T13:32:47;40.90;36.20
2030;DHT22;1020;48.854;8.830;2023-09-08T13:35:14;41.50;34.30
2030;DHT22;1020;48.854;8.830;2023-09-08T13:37:42;40.40;36.10
2030;DHT22;1020;48.854;8.830;2023-09-08T13:40:09;40.60;36.00
2030;DHT22;1020;48.854;8.830;2023-09-08T13:42:36;40.70;35.10
2030;DHT22;1020;48.854;8.830;2023-09-08T13:45:04;40.90;35.00
2030;DHT22;1020;48.854;8.830;2023-09-08T13:47:31;40.80;35.80
2030;DHT22;1020;48.854;8.830;2023-09-08T13:49:57;41.40;34.80
2030;DHT22;1020;48.854;8.830;2023-09-08T13:52:24;42.00;34.10
2030;DHT22;1020;48.854;8.830;2023-09-08T13:54:52;41.20;33.80
2030;DHT22;1020;48.854;8.830;2023-09-08T13:57:19;41.00;35.50
2030;DHT22;1020;48.854;8.830;2023-09-08T13:59:46;40.90;34.50
2030;DHT22;1020;48.854;8.830;2023-09-08T14:02:13;40.10;36.40
2030;DHT22;1020;48.854;8.830;2023-09-08T14:04:40;40.40;36.20
2030;DHT22;1020;48.854;8.830;2023-09-08T14:07:07;40.80;35.60
2030;DHT22;1020;48.854;8.830;2023-09-08T14:09:34;40.80;35.60
2030;DHT22;1020;48.854;8.830;2023-09-08T14:12:03;41.10;35.20
2030;DHT22;1020;48.854;8.830;2023-09-08T14:14:30;41.00;35.00
2030;DHT22;1020;48.854;8.830;2023-09-08T14:16:56;41.30;34.90
2030;DHT22;1020;48.854;8.830;2023-09-08T14:19:23;41.40;34.70
2030;DHT22;1020;48.854;8.830;2023-09-08T14:21:50;40.60;35.30
2030;DHT22;1020;48.854;8.830;2023-09-08T14:24:17;40.20;35.90
2030;DHT22;1020;48.854;8.830;2023-09-08T14:26:43;40.40;36.10
2030;DHT22;1020;48.854;8.830;2023-09-08T14:29:12;40.20;36.40
2030;DHT22;1020;48.854;8.830;2023-09-08T14:31:38;39.80;36.50
2030;DHT22;1020;48.854;8.830;2023-09-08T14:34:05;39.30;37.30
2030;DHT22;1020;48.854;8.830;2023-09-08T14:36:32;38.90;37.50
2030;DHT22;1020;48.854;8.830;2023-09-08T14:38:58;38.20;39.00
2030;DHT22;1020;48.854;8.830;2023-09-08T14:41:26;38.40;39.40
2030;DHT22;1020;48.854;8.830;2023-09-08T14:43:52;38.80;38.50
2030;DHT22;1020;48.854;8.830;2023-09-08T14:46:21;39.10;37.80
2030;DHT22;1020;48.854;8.830;2023-09-08T14:48:47;38.50;38.50
2030;DHT22;1020;48.854;8.830;2023-09-08T14:51:14;38.30;38.40
2030;DHT22;1020;48.854;8.830;2023-09-08T14:53:41;38.00;39.40
2030;DHT22;1020;48.854;8.830;2023-09-08T14:56:07;38.30;39.80
2030;DHT22;1020;48.854;8.830;2023-09-08T14:58:34;38.40;38.70
2030;DHT22;1020;48.854;8.830;2023-09-08T15:01:01;38.50;38.40
2030;DHT22;1020;48.854;8.830;2023-09-08T15:03:31;38.60;38.60
2030;DHT22;1020;48.854;8.830;2023-09-08T15:05:58;38.70;37.80
2030;DHT22;1020;48.854;8.830;2023-09-08T15:08:25;38.30;37.90
2030;DHT22;1020;48.854;8.830;2023-09-08T15:10:52;38.30;38.50
2030;DHT22;1020;48.854;8.830;2023-09-08T15:13:19;38.00;37.80
2030;DHT22;1020;48.854;8.830;2023-09-08T15:15:46;37.70;38.90
2030;DHT22;1020;48.854;8.830;2023-09-08T15:18:13;37.30;38.60
2030;DHT22;1020;48.854;8.830;2023-09-08T15:20:41;37.40;39.50
2030;DHT22;1020;48.854;8.830;2023-09-08T15:23:07;37.40;39.30
2030;DHT22;1020;48.854;8.830;2023-09-08T15:25:34;37.20;40.50
2030;DHT22;1020;48.854;8.830;2023-09-08T15:28:01;37.00;40.10
2030;DHT22;1020;48.854;8.830;2023-09-08T15:30:28;36.40;41.10
2030;DHT22;1020;48.854;8.830;2023-09-08T15:32:54;36.50;40.80
2030;DHT22;1020;48.854;8.830;2023-09-08T15:35:22;36.20;41.30
2030;DHT22;1020;48.854;8.830;2023-09-08T15:37:50;36.30;41.10
2030;DHT22;1020;48.854;8.830;2023-09-08T15:40:17;36.60;41.00
2030;DHT22;1020;48.854;8.830;2023-09-08T15:42:43;36.60;40.60
2030;DHT22;1020;48.854;8.830;2023-09-08T15:45:10;36.50;40.00
2030;DHT22;1020;48.854;8.830;2023-09-08T15:47:37;36.60;40.20
2030;DHT22;1020;48.854;8.830;2023-09-08T15:50:05;36.50;40.30
2030;DHT22;1020;48.854;8.830;2023-09-08T15:52:34;36.60;40.00
2030;DHT22;1020;48.854;8.830;2023-09-08T15:55:02;36.30;40.00
2030;DHT22;1020;48.854;8.830;2023-09-08T15:57:30;36.30;40.00
2030;DHT22;1020;48.854;8.830;2023-09-08T15:59:56;36.20;40.00
2030;DHT22;1020;48.854;8.830;2023-09-08T16:02:23;36.10;40.50
2030;DHT22;1020;48.854;8.830;2023-09-08T16:04:50;35.80;40.70
2030;DHT22;1020;48.854;8.830;2023-09-08T16:07:17;35.60;41.20